Nearby METAR Reports

 

KCPC - Whiteville, North Carolina, USA
Distance from station: NNE 17mi, 28km
Updated: 11/26/2020 1:35pm
Partly cloudy
Partly cloudy
 Wind from SW
Wind: SW 7 mph , 11 km/h
Temperature: 70°F , 21°C
Dew Point: 59°F , 15°C
Humidity: 69%
Barometer: 30.08 inHg , 1018.6 hPa
Clouds: Partly cloudy
Visibility: 10 miles , 16 km
Cloud details: Partly cloudy 11000 ft
2020/11/26 18:35 KCPC 261835Z AUTO 22006KT 10SM SCT110 21/15 A3008 RMK AO2 T02090151
KCRE - North Myrtle Bea, South Carolina, USA
Distance from station: SSE 19mi, 31km
Updated: 11/26/2020 12:53pm
Light rain, Overcast
Light rain, Overcast
 Wind from varies
Wind: varies 6 mph , 9 km/h, Gust: 18 mph , 30 km/h
Temperature: 70°F , 21°C
Dew Point: 64°F , 18°C
Humidity: 83%
Barometer: 30.12 inHg , 1020 hPa
Summary: Light rain
Clouds: Overcast
Visibility: 10 miles , 16 km
Cloud details: Partly cloudy 3000 ft
Mostly cloudy 6000 ft
Overcast 10000 ft
2020/11/26 17:53 KCRE 261753Z VRB05G16KT 10SM -RA SCT030 BKN060 OVC100 21/18 A3012 RMK AO1 RAB34 SLP199 P0007 60007 T02110178 10239 20178 58010
 
KHYW - Conway-Horry Cty, South Carolina, USA
Distance from station: SW 22mi, 35km
Updated: 11/26/2020 1:35pm
Partly cloudy
Partly cloudy
 Wind from W
Wind: W 7 mph , 11 km/h
Temperature: 68°F , 20°C
Dew Point: 61°F , 16°C
Humidity: 78%
Barometer: 30.14 inHg , 1020.7 hPa
Clouds: Partly cloudy
Visibility: 10 miles , 16 km
Cloud details: Partly cloudy 8000 ft
Partly cloudy 11000 ft
2020/11/26 18:35 KHYW 261835Z AUTO 26006KT 10SM SCT080 SCT110 20/16 A3014 RMK AO2
KMAO - Marion, South Carolina, USA
Distance from station: WNW 28mi, 45km
Updated: 11/26/2020 1:55pm
Overcast
Overcast
 Wind from SW
Wind: SW 7 mph , 11 km/h
Temperature: 63°F , 17°C
Dew Point: 63°F , 17°C
Humidity: 100%
Barometer: 30.09 inHg , 1019 hPa
Clouds: Overcast
Visibility: 10 miles , 16 km
Cloud details: Overcast 11000 ft
2020/11/26 18:55 KMAO 261855Z AUTO 22006KT 10SM OVC110 17/17 A3009 RMK AO2
 
KMYR - Myrtle Beach, South Carolina, USA
Distance from station: S 28mi, 45km
Updated: 11/26/2020 12:56pm
Overcast
Overcast
 Wind from NW
Wind: NW 15 mph , 24 km/h, Gust: 25 mph , 41 km/h
Temperature: 72°F , 22°C
Dew Point: 63°F , 17°C
Humidity: 73%
Barometer: 30.13 inHg , 1020.3 hPa
Clouds: Overcast
Visibility: 10 miles , 16 km
Cloud details: Few Clouds 2500 ft
Partly cloudy 3100 ft
Overcast 4900 ft
2020/11/26 17:56 KMYR 261756Z 32013G22KT 10SM FEW025 SCT031 OVC049 22/17 A3013 RMK AO2 SLP202 T02170167 10261 20189 58009
KLBT - Lumberton, North Carolina, USA
Distance from station: NNW 39mi, 62km
Updated: 03/28/2019 9:55am
NOT Current

 
2019/03/28 13:55 KLBT 281355Z MKT MSM M M M M A0000 M M RMK TEST
 
KSUT - Southport, North Carolina, USA
Distance from station: E 46mi, 74km
Updated: 11/26/2020 1:35pm
Mostly cloudy
Mostly cloudy
 Wind from WSW
Wind: WSW 9 mph , 15 km/h, Gust: 17 mph , 28 km/h
Temperature: 72°F , 22°C
Dew Point: 64°F , 18°C
Humidity: 78%
Barometer: 30.11 inHg , 1019.6 hPa
Clouds: Mostly cloudy
Visibility: 10 miles , 16 km
Cloud details: Partly cloudy 3300 ft
Partly cloudy 4000 ft
Mostly cloudy 4700 ft
2020/11/26 18:35 KSUT 261835Z AUTO 25008G15KT 10SM SCT033 SCT040 BKN047 22/18 A3011 RMK AO2 T02230175
KFLO - Florence, South Carolina, USA
Distance from station: W 50mi, 81km
Updated: 11/26/2020 12:53pm
Light rain, Overcast
Light rain, Overcast
 Wind from SSW
Wind: SSW 10 mph , 17 km/h
Temperature: 64°F , 18°C
Dew Point: 63°F , 17°C
Humidity: 94%
Barometer: 30.11 inHg , 1019.6 hPa
Summary: Light rain
Clouds: Overcast
Visibility: 10 miles , 16 km
Cloud details: Overcast 10000 ft
2020/11/26 17:53 KFLO 261753Z 20009KT 10SM -RA OVC100 18/17 A3011 RMK AO2 SLP195 P0005 60029 T01780167 10211 20167 58017